PWSweather.com
Personal Weather Stations
Station Observations
KMIEASTT1
Tawas Bay, East Tawas, MI 48730

Tawas BayEast Tawas, MI 48730

Lat: 44.28, Lon: -83.48

Elevation: 600

Station Type: Davis VantagePro

http://www.tawasbayweather.com

Latest ConditionsUpdated 5:30:11 PM EST Saturday, Dec 16, 2017
Currently Today's Max Today's Min Today's Average
Temperature 20.3°F-6.5°C 24.1°F-4.4°C 16.4°F-8.7°C 20.0°F-6.7°C
Dew Point 15.7°F-9.1°C 18.1°F-7.7°C 12.7°F-10.7°C 15.6°F-9.1°C
Winds 2.0 mph N3.2 kmh N 6.0 mph WSW9.7 kmh WSW - 1.8 mph 2.9 kmh
Wind Gusts 4.0 mph6.4 kmh 11.0 mph17.7 kmh - -
Humidity 82% 88% 75% 83%
Pressure 30.20 in1022.7 mb 30.20 in1022.7 mb 29.90 in1012.5 mb -
Hour Temp Dew Point Humidity Winds Wind Gusts Pressure Precip Precip Rate Daily Precip Total
05:30 PM 20.3°F-6.5°C 15.7°F-9.1°C 82% 2.0 mph N3.2 kmh N 4.0 mph6.4 kmh 30.20 in1022.7 mb 0.00 in0.0 mm 0.00 in0.0 mm 0.00 in0.0 mm
05:15 PM 20.5°F-6.4°C 15.9°F-8.9°C 82% 2.0 mph NNE3.2 kmh NNE 2.0 mph3.2 kmh 30.20 in1022.7 mb 0.00 in0.0 mm 0.00 in0.0 mm 0.00 in0.0 mm
05:00 PM 20.7°F-6.3°C 15.8°F-9.0°C 81% 1.0 mph NE1.6 kmh NE 2.0 mph3.2 kmh 30.20 in1022.7 mb 0.00 in0.0 mm 0.00 in0.0 mm 0.00 in0.0 mm
04:45 PM 21.1°F-6.1°C 15.9°F-8.9°C 80% Calm Calm 3.0 mph4.8 kmh 30.19 in1022.4 mb 0.00 in0.0 mm 0.00 in0.0 mm 0.00 in0.0 mm
04:30 PM 21.5°F-5.8°C 16.0°F-8.9°C 79% Calm Calm 4.0 mph6.4 kmh 30.18 in1022.0 mb 0.00 in0.0 mm 0.00 in0.0 mm 0.00 in0.0 mm
04:15 PM 21.5°F-5.8°C 16.0°F-8.9°C 79% 1.0 mph ENE1.6 kmh ENE 8.0 mph12.9 kmh 30.17 in1021.7 mb 0.00 in0.0 mm 0.00 in0.0 mm 0.00 in0.0 mm
04:00 PM 21.7°F-5.7°C 16.2°F-8.8°C 79% 1.0 mph NE1.6 kmh NE 2.0 mph3.2 kmh 30.15 in1021.0 mb 0.00 in0.0 mm 0.00 in0.0 mm 0.00 in0.0 mm
03:45 PM 22.1°F-5.5°C 16.3°F-8.7°C 78% 3.0 mph NE4.8 kmh NE 3.0 mph4.8 kmh 30.14 in1020.7 mb 0.00 in0.0 mm 0.00 in0.0 mm 0.00 in0.0 mm
03:30 PM 22.2°F-5.4°C 16.1°F-8.8°C 77% 2.0 mph NE3.2 kmh NE 5.0 mph8.0 kmh 30.13 in1020.3 mb 0.00 in0.0 mm 0.00 in0.0 mm 0.00 in0.0 mm
03:15 PM 22.7°F-5.2°C 16.3°F-8.7°C 76% Calm Calm 5.0 mph8.0 kmh 30.13 in1020.3 mb 0.00 in0.0 mm 0.00 in0.0 mm 0.00 in0.0 mm
03:00 PM 23.1°F-4.9°C 16.7°F-8.5°C 76% 2.0 mph NNW3.2 kmh NNW 7.0 mph11.3 kmh 30.12 in1020.0 mb 0.00 in0.0 mm 0.00 in0.0 mm 0.00 in0.0 mm
02:45 PM 23.4°F-4.8°C 17.3°F-8.2°C 77% 2.0 mph NE3.2 kmh NE 5.0 mph8.0 kmh 30.12 in1020.0 mb 0.00 in0.0 mm 0.00 in0.0 mm 0.00 in0.0 mm
02:30 PM 23.4°F-4.8°C 17.0°F-8.3°C 76% Calm Calm 5.0 mph8.0 kmh 30.13 in1020.3 mb 0.00 in0.0 mm 0.00 in0.0 mm 0.00 in0.0 mm
02:15 PM 23.6°F-4.7°C 17.2°F-8.2°C 76% 2.0 mph ENE3.2 kmh ENE 4.0 mph6.4 kmh 30.12 in1020.0 mb 0.00 in0.0 mm 0.00 in0.0 mm 0.00 in0.0 mm
02:00 PM 23.3°F-4.8°C 16.6°F-8.6°C 75% Calm Calm 3.0 mph4.8 kmh 30.12 in1020.0 mb 0.00 in0.0 mm 0.00 in0.0 mm 0.00 in0.0 mm
01:45 PM 23.6°F-4.7°C 17.2°F-8.2°C 76% 4.0 mph ENE6.4 kmh ENE 6.0 mph9.7 kmh 30.11 in1019.6 mb 0.00 in0.0 mm 0.00 in0.0 mm 0.00 in0.0 mm
01:30 PM 23.7°F-4.6°C 17.0°F-8.3°C 75% 1.0 mph N1.6 kmh N 4.0 mph6.4 kmh 30.10 in1019.3 mb 0.00 in0.0 mm 0.00 in0.0 mm 0.00 in0.0 mm
01:15 PM 23.9°F-4.5°C 17.5°F-8.1°C 76% 3.0 mph NE4.8 kmh NE 5.0 mph8.0 kmh 30.09 in1019.0 mb 0.00 in0.0 mm 0.00 in0.0 mm 0.00 in0.0 mm
01:00 PM 24.1°F-4.4°C 17.6°F-8.0°C 76% Calm Calm 5.0 mph8.0 kmh 30.09 in1019.0 mb 0.00 in0.0 mm 0.00 in0.0 mm 0.00 in0.0 mm
12:45 PM 23.4°F-4.8°C 17.0°F-8.3°C 76% Calm Calm 7.0 mph11.3 kmh 30.09 in1019.0 mb 0.00 in0.0 mm 0.00 in0.0 mm 0.00 in0.0 mm
12:30 PM 23.7°F-4.6°C 17.3°F-8.2°C 76% Calm Calm 5.0 mph8.0 kmh 30.09 in1019.0 mb 0.00 in0.0 mm 0.00 in0.0 mm 0.00 in0.0 mm
12:15 PM 23.8°F-4.6°C 18.0°F-7.8°C 78% 1.0 mph E1.6 kmh E 3.0 mph4.8 kmh 30.08 in1018.6 mb 0.00 in0.0 mm 0.00 in0.0 mm 0.00 in0.0 mm
12:00 PM 23.4°F-4.8°C 17.6°F-8.0°C 78% Calm Calm 9.0 mph14.5 kmh 30.09 in1019.0 mb 0.00 in0.0 mm 0.00 in0.0 mm 0.00 in0.0 mm
11:45 AM 23.3°F-4.8°C 18.1°F-7.7°C 80% 2.0 mph N3.2 kmh N 3.0 mph4.8 kmh 30.08 in1018.6 mb 0.00 in0.0 mm 0.00 in0.0 mm 0.00 in0.0 mm
11:30 AM 22.5°F-5.3°C 17.3°F-8.2°C 80% 1.0 mph N1.6 kmh N 6.0 mph9.7 kmh 30.09 in1019.0 mb 0.00 in0.0 mm 0.00 in0.0 mm 0.00 in0.0 mm
11:15 AM 22.1°F-5.5°C 17.5°F-8.1°C 82% 5.0 mph NNE8.0 kmh NNE 6.0 mph9.7 kmh 30.08 in1018.6 mb 0.00 in0.0 mm 0.00 in0.0 mm 0.00 in0.0 mm
11:00 AM 21.1°F-6.1°C 16.8°F-8.4°C 83% 1.0 mph N1.6 kmh N 5.0 mph8.0 kmh 30.09 in1019.0 mb 0.00 in0.0 mm 0.00 in0.0 mm 0.00 in0.0 mm
10:45 AM 20.8°F-6.2°C 16.7°F-8.5°C 84% 2.0 mph NNW3.2 kmh NNW 4.0 mph6.4 kmh 30.09 in1019.0 mb 0.00 in0.0 mm 0.00 in0.0 mm 0.00 in0.0 mm
10:30 AM 20.4°F-6.4°C 16.6°F-8.6°C 85% 2.0 mph NNW3.2 kmh NNW 4.0 mph6.4 kmh 30.08 in1018.6 mb 0.00 in0.0 mm 0.00 in0.0 mm 0.00 in0.0 mm
10:15 AM 19.9°F-6.7°C 16.1°F-8.8°C 85% 2.0 mph N3.2 kmh N 6.0 mph9.7 kmh 30.07 in1018.3 mb 0.00 in0.0 mm 0.00 in0.0 mm 0.00 in0.0 mm
10:00 AM 19.8°F-6.8°C 16.0°F-8.9°C 85% 1.0 mph NNW1.6 kmh NNW 4.0 mph6.4 kmh 30.06 in1017.9 mb 0.00 in0.0 mm 0.00 in0.0 mm 0.00 in0.0 mm
09:45 AM 19.7°F-6.8°C 16.2°F-8.8°C 86% 2.0 mph N3.2 kmh N 5.0 mph8.0 kmh 30.05 in1017.6 mb 0.00 in0.0 mm 0.00 in0.0 mm 0.00 in0.0 mm
09:30 AM 19.5°F-6.9°C 16.0°F-8.9°C 86% 1.0 mph N1.6 kmh N 4.0 mph6.4 kmh 30.04 in1017.3 mb 0.00 in0.0 mm 0.00 in0.0 mm 0.00 in0.0 mm
09:15 AM 19.2°F-7.1°C 15.7°F-9.1°C 86% 3.0 mph N4.8 kmh N 4.0 mph6.4 kmh 30.04 in1017.3 mb 0.00 in0.0 mm 0.00 in0.0 mm 0.00 in0.0 mm
09:00 AM 19.1°F-7.2°C 15.6°F-9.1°C 86% 4.0 mph NNE6.4 kmh NNE 5.0 mph8.0 kmh 30.04 in1017.3 mb 0.00 in0.0 mm 0.00 in0.0 mm 0.00 in0.0 mm
08:45 AM 18.9°F-7.3°C 15.7°F-9.1°C 87% 1.0 mph NNE1.6 kmh NNE 6.0 mph9.7 kmh 30.03 in1016.9 mb 0.00 in0.0 mm 0.00 in0.0 mm 0.00 in0.0 mm
08:30 AM 18.7°F-7.4°C 15.5°F-9.2°C 87% 1.0 mph N1.6 kmh N 4.0 mph6.4 kmh 30.02 in1016.6 mb 0.00 in0.0 mm 0.00 in0.0 mm 0.00 in0.0 mm
08:15 AM 18.6°F-7.4°C 15.4°F-9.2°C 87% 1.0 mph N1.6 kmh N 3.0 mph4.8 kmh 30.01 in1016.3 mb 0.00 in0.0 mm 0.00 in0.0 mm 0.00 in0.0 mm
08:00 AM 18.6°F-7.4°C 15.4°F-9.2°C 87% 1.0 mph N1.6 kmh N 2.0 mph3.2 kmh 30.01 in1016.3 mb 0.00 in0.0 mm 0.00 in0.0 mm 0.00 in0.0 mm
07:45 AM 18.5°F-7.5°C 15.3°F-9.3°C 87% Calm Calm 1.0 mph1.6 kmh 30.00 in1015.9 mb 0.00 in0.0 mm 0.00 in0.0 mm 0.00 in0.0 mm
07:30 AM 18.2°F-7.7°C 15.0°F-9.4°C 87% Calm Calm 2.0 mph3.2 kmh 30.00 in1015.9 mb 0.00 in0.0 mm 0.00 in0.0 mm 0.00 in0.0 mm
07:15 AM 18.3°F-7.6°C 14.8°F-9.6°C 86% Calm Calm 1.0 mph1.6 kmh 29.99 in1015.6 mb 0.00 in0.0 mm 0.00 in0.0 mm 0.00 in0.0 mm
07:00 AM 18.6°F-7.4°C 15.1°F-9.4°C 86% Calm Calm 1.0 mph1.6 kmh 29.99 in1015.6 mb 0.00 in0.0 mm 0.00 in0.0 mm 0.00 in0.0 mm
06:45 AM 18.6°F-7.4°C 15.4°F-9.2°C 87% Calm Calm -- 29.98 in1015.2 mb 0.00 in0.0 mm 0.00 in0.0 mm 0.00 in0.0 mm
06:30 AM 18.3°F-7.6°C 15.1°F-9.4°C 87% Calm Calm -- 29.97 in1014.9 mb 0.00 in0.0 mm 0.00 in0.0 mm 0.00 in0.0 mm
06:15 AM 17.9°F-7.8°C 15.0°F-9.4°C 88% Calm Calm 1.0 mph1.6 kmh 29.97 in1014.9 mb 0.00 in0.0 mm 0.00 in0.0 mm 0.00 in0.0 mm
06:00 AM 17.5°F-8.1°C 14.6°F-9.7°C 88% Calm Calm -- 29.97 in1014.9 mb 0.00 in0.0 mm 0.00 in0.0 mm 0.00 in0.0 mm
05:45 AM 17.2°F-8.2°C 14.0°F-10.0°C 87% 1.0 mph N1.6 kmh N 2.0 mph3.2 kmh 29.98 in1015.2 mb 0.00 in0.0 mm 0.00 in0.0 mm 0.00 in0.0 mm
05:30 AM 17.1°F-8.3°C 13.9°F-10.1°C 87% 2.0 mph N3.2 kmh N 2.0 mph3.2 kmh 29.98 in1015.2 mb 0.00 in0.0 mm 0.00 in0.0 mm 0.00 in0.0 mm
05:15 AM 17.4°F-8.1°C 13.9°F-10.1°C 86% 2.0 mph N3.2 kmh N 2.0 mph3.2 kmh 29.97 in1014.9 mb 0.00 in0.0 mm 0.00 in0.0 mm 0.00 in0.0 mm
05:00 AM 18.1°F-7.7°C 14.4°F-9.8°C 85% Calm Calm 2.0 mph3.2 kmh 29.97 in1014.9 mb 0.00 in0.0 mm 0.00 in0.0 mm 0.00 in0.0 mm
04:45 AM 18.6°F-7.4°C 14.9°F-9.5°C 85% Calm Calm 3.0 mph4.8 kmh 29.96 in1014.6 mb 0.00 in0.0 mm 0.00 in0.0 mm 0.00 in0.0 mm
04:30 AM 19.2°F-7.1°C 15.4°F-9.2°C 85% 2.0 mph N3.2 kmh N 3.0 mph4.8 kmh 29.95 in1014.2 mb 0.00 in0.0 mm 0.00 in0.0 mm 0.00 in0.0 mm
04:15 AM 19.4°F-7.0°C 15.9°F-8.9°C 86% 4.0 mph W6.4 kmh W 6.0 mph9.7 kmh 29.95 in1014.2 mb 0.00 in0.0 mm 0.00 in0.0 mm 0.00 in0.0 mm
04:00 AM 19.5°F-6.9°C 15.7°F-9.1°C 85% 5.0 mph WSW8.0 kmh WSW 8.0 mph12.9 kmh 29.94 in1013.9 mb 0.00 in0.0 mm 0.00 in0.0 mm 0.00 in0.0 mm
03:45 AM 20.0°F-6.7°C 16.5°F-8.6°C 86% 4.0 mph WSW6.4 kmh WSW 11.0 mph17.7 kmh 29.94 in1013.9 mb 0.00 in0.0 mm 0.00 in0.0 mm 0.00 in0.0 mm
03:30 AM 19.7°F-6.8°C 16.5°F-8.6°C 87% 4.0 mph W6.4 kmh W 10.0 mph16.1 kmh 29.94 in1013.9 mb 0.00 in0.0 mm 0.00 in0.0 mm 0.00 in0.0 mm
03:15 AM 18.4°F-7.6°C 14.7°F-9.6°C 85% 5.0 mph WSW8.0 kmh WSW 5.0 mph8.0 kmh 29.94 in1013.9 mb 0.00 in0.0 mm 0.00 in0.0 mm 0.00 in0.0 mm
03:00 AM 18.0°F-7.8°C 14.3°F-9.8°C 85% 2.0 mph WNW3.2 kmh WNW 5.0 mph8.0 kmh 29.94 in1013.9 mb 0.00 in0.0 mm 0.00 in0.0 mm 0.00 in0.0 mm
02:45 AM 17.5°F-8.1°C 13.8°F-10.1°C 85% 2.0 mph W3.2 kmh W 4.0 mph6.4 kmh 29.93 in1013.5 mb 0.00 in0.0 mm 0.00 in0.0 mm 0.00 in0.0 mm
02:30 AM 16.9°F-8.4°C 13.5°F-10.3°C 86% 3.0 mph W4.8 kmh W 4.0 mph6.4 kmh 29.93 in1013.5 mb 0.00 in0.0 mm 0.00 in0.0 mm 0.00 in0.0 mm
02:15 AM 16.4°F-8.7°C 12.7°F-10.7°C 85% 1.0 mph NW1.6 kmh NW 4.0 mph6.4 kmh 29.92 in1013.2 mb 0.00 in0.0 mm 0.00 in0.0 mm 0.00 in0.0 mm
02:00 AM 16.8°F-8.4°C 13.1°F-10.5°C 85% 2.0 mph NW3.2 kmh NW 4.0 mph6.4 kmh 29.92 in1013.2 mb 0.00 in0.0 mm 0.00 in0.0 mm 0.00 in0.0 mm
01:45 AM 16.8°F-8.4°C 12.8°F-10.7°C 84% 2.0 mph W3.2 kmh W 4.0 mph6.4 kmh 29.92 in1013.2 mb 0.00 in0.0 mm 0.00 in0.0 mm 0.00 in0.0 mm
01:30 AM 17.2°F-8.2°C 13.2°F-10.4°C 84% 2.0 mph WSW3.2 kmh WSW 4.0 mph6.4 kmh 29.92 in1013.2 mb 0.00 in0.0 mm 0.00 in0.0 mm 0.00 in0.0 mm
01:15 AM 17.5°F-8.1°C 13.5°F-10.3°C 84% 3.0 mph W4.8 kmh W 6.0 mph9.7 kmh 29.92 in1013.2 mb 0.00 in0.0 mm 0.00 in0.0 mm 0.00 in0.0 mm
01:00 AM 17.6°F-8.0°C 13.6°F-10.2°C 84% 4.0 mph WNW6.4 kmh WNW 5.0 mph8.0 kmh 29.91 in1012.9 mb 0.00 in0.0 mm 0.00 in0.0 mm 0.00 in0.0 mm
12:45 AM 17.7°F-7.9°C 13.4°F-10.3°C 83% 5.0 mph W8.0 kmh W 8.0 mph12.9 kmh 29.91 in1012.9 mb 0.00 in0.0 mm 0.00 in0.0 mm 0.00 in0.0 mm
12:30 AM 17.9°F-7.8°C 13.6°F-10.2°C 83% 3.0 mph W4.8 kmh W 9.0 mph14.5 kmh 29.91 in1012.9 mb 0.00 in0.0 mm 0.00 in0.0 mm 0.00 in0.0 mm
12:15 AM 18.3°F-7.6°C 14.3°F-9.8°C 84% 5.0 mph NW8.0 kmh NW 8.0 mph12.9 kmh 29.90 in1012.5 mb 0.00 in0.0 mm 0.00 in0.0 mm 0.00 in0.0 mm
12:00 AM 18.5°F-7.5°C 14.8°F-9.6°C 85% 6.0 mph WSW9.7 kmh WSW 8.0 mph12.9 kmh 29.90 in1012.5 mb 0.00 in0.0 mm 0.00 in0.0 mm 0.00 in0.0 mm